Terminal Aerodrome Forecast
Issued by NWS Jackson, KY

Home | Current Version | Previous Version | Text Only | Print | Product List | Glossary On
Versions: 1 2 3 4 5 6 7 8 9 10 11 12 13 14 15 16 17 18
000
FTUS43 KJKL 191120
TAFJKL
TAF
KJKL 191120Z 1912/2012 28011G22KT P6SM OVC030
     FM191900 31010G17KT P6SM OVC035
     FM192200 33005KT P6SM SCT040 SCT200=

USA.gov is the U.S. government's official web portal to all federal, state and local government web resources and services.